createdAt,value
2023-05-10T00:00:07.296Z,14.08
2023-05-10T00:05:15.358Z,14.05
2023-05-10T00:10:17.836Z,14.02
2023-05-10T00:15:19.852Z,13.97
2023-05-10T00:20:21.717Z,13.92
2023-05-10T00:25:23.452Z,13.86
2023-05-10T00:30:25.640Z,13.83
2023-05-10T00:35:27.779Z,13.79
2023-05-10T00:40:29.936Z,13.77
2023-05-10T00:45:38.531Z,13.78
2023-05-10T00:50:41.450Z,13.76
2023-05-10T00:55:43.771Z,13.73
2023-05-10T01:00:47.657Z,13.69
2023-05-10T01:05:51.210Z,13.68
2023-05-10T01:10:53.951Z,13.68
2023-05-10T01:15:57.042Z,13.65
2023-05-10T01:21:18.256Z,13.62
2023-05-10T01:26:54.719Z,13.58
2023-05-10T01:31:59.488Z,13.52
2023-05-10T01:37:10.546Z,13.49
2023-05-10T01:42:21.211Z,13.42
2023-05-10T01:47:53.227Z,13.36
2023-05-10T01:52:56.650Z,13.26
2023-05-10T01:58:09.135Z,13.20
2023-05-10T02:03:13.213Z,13.18
2023-05-10T02:08:17.244Z,13.17
2023-05-10T02:13:20.735Z,13.15
2023-05-10T02:18:25.308Z,13.10
2023-05-10T02:23:27.640Z,13.03
2023-05-10T02:28:30.337Z,12.97
2023-05-10T02:33:33.764Z,12.90
2023-05-10T02:38:37.637Z,12.86
2023-05-10T02:43:41.996Z,12.82
2023-05-10T02:48:43.940Z,12.73
2023-05-10T02:53:49.013Z,12.66
2023-05-10T02:58:50.996Z,12.62
2023-05-10T03:03:52.748Z,12.61
2023-05-10T03:08:54.672Z,12.60
2023-05-10T03:14:23.515Z,12.59
2023-05-10T03:19:56.525Z,12.55
2023-05-10T03:25:02.364Z,12.56
2023-05-10T03:30:09.561Z,12.57
2023-05-10T03:35:14.402Z,12.57
2023-05-10T03:40:17.327Z,12.56
2023-05-10T03:45:19.894Z,12.52
2023-05-10T03:50:24.713Z,12.54
2023-05-10T03:55:26.892Z,12.56
2023-05-10T04:00:28.830Z,12.64
2023-05-10T04:05:31.399Z,12.66
2023-05-10T04:10:33.784Z,12.66
2023-05-10T04:15:36.908Z,12.67
2023-05-10T04:20:38.740Z,12.69
2023-05-10T04:25:40.675Z,12.70
2023-05-10T04:30:45.075Z,12.73
2023-05-10T04:35:47.016Z,12.81
2023-05-10T04:40:49.271Z,12.91
2023-05-10T04:45:51.997Z,13.00
2023-05-10T04:50:54.080Z,13.01
2023-05-10T04:55:56.001Z,13.05
2023-05-10T05:00:57.979Z,13.08
2023-05-10T05:06:01.134Z,13.15
2023-05-10T05:11:04.153Z,13.23
2023-05-10T05:16:06.678Z,13.36
2023-05-10T05:21:19.186Z,13.45
2023-05-10T05:26:22.438Z,13.56
2023-05-10T05:31:24.317Z,13.67
2023-05-10T05:36:26.479Z,13.76
2023-05-10T05:41:28.370Z,13.93
2023-05-10T05:46:30.324Z,14.04
2023-05-10T05:51:32.195Z,14.15
2023-05-10T05:56:34.068Z,14.30
2023-05-10T06:01:36.087Z,14.45
2023-05-10T06:06:37.861Z,14.61
2023-05-10T06:11:39.755Z,14.77
2023-05-10T06:16:41.801Z,14.98
2023-05-10T06:21:43.784Z,15.17
2023-05-10T06:26:45.688Z,15.35
2023-05-10T06:31:47.677Z,15.46
2023-05-10T06:36:49.667Z,15.63
2023-05-10T06:41:51.528Z,15.80
2023-05-10T06:46:56.931Z,16.01
2023-05-10T06:51:58.942Z,16.19
2023-05-10T06:57:01.920Z,16.26
2023-05-10T07:02:06.586Z,16.38
2023-05-10T07:07:08.584Z,16.50
2023-05-10T07:12:13.462Z,16.54
2023-05-10T07:17:16.767Z,16.62
2023-05-10T07:22:18.690Z,16.70
2023-05-10T07:27:20.591Z,16.80
2023-05-10T07:32:22.817Z,16.88
2023-05-10T07:37:24.904Z,16.96
2023-05-10T07:42:26.791Z,17.00
2023-05-10T07:47:28.768Z,17.09
2023-05-10T07:52:30.688Z,17.16
2023-05-10T07:57:32.549Z,17.19
2023-05-10T08:02:36.846Z,17.30
2023-05-10T08:07:39.142Z,17.43
2023-05-10T08:12:41.168Z,17.60
2023-05-10T08:17:44.165Z,17.73
2023-05-10T08:22:47.043Z,17.83
2023-05-10T08:27:49.234Z,17.90
2023-05-10T08:32:51.380Z,17.93
2023-05-10T08:37:53.346Z,18.05
2023-05-10T08:43:16.289Z,18.15
2023-05-10T08:48:18.751Z,18.27
2023-05-10T08:53:22.176Z,18.25
2023-05-10T08:58:24.080Z,18.35
2023-05-10T09:03:26.138Z,18.48
2023-05-10T09:08:28.386Z,18.59
2023-05-10T09:13:31.015Z,18.70
2023-05-10T09:18:33.064Z,18.80
2023-05-10T09:23:35.020Z,18.88
2023-05-10T09:28:55.720Z,18.94
2023-05-10T09:33:57.743Z,18.97
2023-05-10T09:38:59.707Z,19.13
2023-05-10T09:44:01.694Z,19.18
2023-05-10T09:49:03.604Z,19.23
2023-05-10T09:54:16.745Z,19.25
2023-05-10T09:59:19.640Z,19.25
2023-05-10T10:04:22.702Z,19.18
2023-05-10T10:09:25.499Z,19.20
2023-05-10T10:14:27.488Z,19.23
2023-05-10T10:19:29.668Z,19.21
2023-05-10T10:24:31.858Z,19.26
2023-05-10T10:29:46.843Z,19.28
2023-05-10T10:34:49.344Z,19.40
2023-05-10T10:39:51.513Z,19.42
2023-05-10T10:45:12.981Z,19.52
2023-05-10T10:50:15.007Z,19.54
2023-05-10T10:55:25.955Z,19.55
2023-05-10T11:00:30.231Z,19.65
2023-05-10T11:05:52.977Z,19.77
2023-05-10T11:11:00.670Z,19.86
2023-05-10T11:16:19.048Z,19.78
2023-05-10T11:21:21.667Z,19.65
2023-05-10T11:26:26.559Z,19.71
2023-05-10T11:31:29.672Z,19.71
2023-05-10T11:36:37.402Z,19.56
2023-05-10T11:41:42.903Z,19.50
2023-05-10T11:46:45.014Z,19.56
2023-05-10T11:51:46.962Z,19.79
2023-05-10T11:56:51.129Z,19.90
2023-05-10T12:01:53.215Z,19.85
2023-05-10T12:06:55.116Z,19.85
2023-05-10T12:12:00.306Z,19.96
2023-05-10T12:17:02.413Z,20.02
2023-05-10T12:22:06.919Z,20.09
2023-05-10T12:27:13.480Z,20.05
2023-05-10T12:32:15.412Z,19.94
2023-05-10T12:37:17.315Z,19.96
2023-05-10T12:42:19.334Z,20.07
2023-05-10T12:47:21.224Z,20.17
2023-05-10T12:52:23.064Z,20.21
2023-05-10T12:57:25.025Z,20.25
2023-05-10T13:02:27.057Z,20.32
2023-05-10T13:07:29.133Z,20.44
2023-05-10T13:12:30.961Z,20.53
2023-05-10T13:17:34.131Z,20.55
2023-05-10T13:22:40.525Z,20.53
2023-05-10T13:27:42.679Z,20.52
2023-05-10T13:32:44.652Z,20.56
2023-05-10T13:37:46.694Z,20.60
2023-05-10T13:42:48.686Z,20.70
2023-05-10T13:47:50.595Z,20.82
2023-05-10T13:52:52.513Z,20.90
2023-05-10T13:57:54.381Z,20.88
2023-05-10T14:02:56.616Z,20.93
2023-05-10T14:07:58.687Z,20.97
2023-05-10T14:13:00.699Z,20.98
2023-05-10T14:18:02.988Z,20.95
2023-05-10T14:23:04.941Z,20.83
2023-05-10T14:28:06.863Z,20.78
2023-05-10T14:33:09.011Z,20.74
2023-05-10T14:38:11.882Z,20.74
2023-05-10T14:43:13.834Z,20.76
2023-05-10T14:48:18.367Z,20.73
2023-05-10T14:53:20.303Z,20.75
2023-05-10T14:58:22.359Z,20.77
2023-05-10T15:03:24.450Z,20.77
2023-05-10T15:08:27.141Z,20.61
2023-05-10T15:13:29.055Z,20.43
2023-05-10T15:18:30.984Z,20.25
2023-05-10T15:23:33.328Z,20.13
2023-05-10T15:28:35.103Z,20.04
2023-05-10T15:33:39.780Z,19.93
2023-05-10T15:38:41.663Z,19.83
2023-05-10T15:43:43.582Z,19.72
2023-05-10T15:48:45.519Z,19.62
2023-05-10T15:54:05.361Z,19.55
2023-05-10T15:59:11.065Z,19.46
2023-05-10T16:04:13.026Z,19.38
2023-05-10T16:09:15.725Z,19.34
2023-05-10T16:14:17.697Z,19.27
2023-05-10T16:19:19.655Z,19.27
2023-05-10T16:24:21.581Z,19.26
2023-05-10T16:29:23.578Z,19.27
2023-05-10T16:34:25.535Z,19.29
2023-05-10T16:39:30.173Z,19.31
2023-05-10T16:44:32.178Z,19.36
2023-05-10T16:49:37.528Z,19.35
2023-05-10T16:54:42.725Z,19.31
2023-05-10T16:59:44.523Z,19.28
2023-05-10T17:04:46.535Z,19.27
2023-05-10T17:09:48.947Z,19.24
2023-05-10T17:14:51.134Z,19.26
2023-05-10T17:19:53.067Z,19.25
2023-05-10T17:24:55.241Z,19.23
2023-05-10T17:29:57.838Z,19.21
2023-05-10T17:34:59.923Z,19.20
2023-05-10T17:40:04.161Z,19.17
2023-05-10T17:45:06.960Z,19.14
2023-05-10T17:50:10.656Z,19.11
2023-05-10T17:55:13.523Z,19.05
2023-05-10T18:00:16.429Z,18.99
2023-05-10T18:05:18.835Z,18.94
2023-05-10T18:10:20.975Z,18.88
2023-05-10T18:15:23.137Z,18.81
2023-05-10T18:20:25.026Z,18.73
2023-05-10T18:25:26.968Z,18.68
2023-05-10T18:30:28.845Z,18.62
2023-05-10T18:35:30.757Z,18.57
2023-05-10T18:40:32.924Z,18.51
2023-05-10T18:45:35.622Z,18.47
2023-05-10T18:50:38.771Z,18.45
2023-05-10T18:55:40.723Z,18.40
2023-05-10T19:00:43.401Z,18.34
2023-05-10T19:05:47.226Z,18.27
2023-05-10T19:10:49.119Z,18.20
2023-05-10T19:16:24.280Z,18.11
2023-05-10T19:21:26.837Z,18.06
2023-05-10T19:26:28.979Z,18.03
2023-05-10T19:31:31.264Z,17.98
2023-05-10T19:36:34.374Z,17.95
2023-05-10T19:41:36.273Z,17.90
2023-05-10T19:46:39.432Z,17.86
2023-05-10T19:51:41.617Z,17.80
2023-05-10T19:56:43.684Z,17.74
2023-05-10T20:01:46.368Z,17.66
2023-05-10T20:06:48.493Z,17.56
2023-05-10T20:11:50.363Z,17.48
2023-05-10T20:16:52.447Z,17.42
2023-05-10T20:21:56.200Z,17.37
2023-05-10T20:26:58.566Z,17.28
2023-05-10T20:32:00.398Z,17.24
2023-05-10T20:37:03.826Z,17.16
2023-05-10T20:42:06.031Z,17.11
2023-05-10T20:47:08.357Z,17.06
2023-05-10T20:52:10.903Z,17.02
2023-05-10T20:57:13.061Z,16.99
2023-05-10T21:02:14.978Z,16.95
2023-05-10T21:07:17.104Z,16.90
2023-05-10T21:12:19.162Z,16.84
2023-05-10T21:17:21.041Z,16.75
2023-05-10T21:22:23.118Z,16.69
2023-05-10T21:27:25.057Z,16.65
2023-05-10T21:32:26.933Z,16.61
2023-05-10T21:37:28.743Z,16.57
2023-05-10T21:42:31.539Z,16.52
2023-05-10T21:47:34.340Z,16.48
2023-05-10T21:52:37.027Z,16.43
2023-05-10T21:57:38.870Z,16.39
2023-05-10T22:02:40.979Z,16.29
2023-05-10T22:07:42.922Z,16.25
2023-05-10T22:12:44.737Z,16.22
2023-05-10T22:17:46.609Z,16.19
2023-05-10T22:22:48.478Z,16.15
2023-05-10T22:27:50.688Z,16.10
2023-05-10T22:32:52.693Z,16.06
2023-05-10T22:37:54.551Z,16.05
2023-05-10T22:42:56.629Z,16.03
2023-05-10T22:47:59.880Z,16.01
2023-05-10T22:53:01.675Z,16.01
2023-05-10T22:58:03.640Z,16.01
2023-05-10T23:03:06.810Z,16.00
2023-05-10T23:08:08.665Z,16.00
2023-05-10T23:13:10.763Z,16.03
2023-05-10T23:18:13.397Z,16.02
2023-05-10T23:23:15.858Z,15.99
2023-05-10T23:28:18.029Z,15.95
2023-05-10T23:33:19.912Z,15.91
2023-05-10T23:38:21.917Z,15.88
2023-05-10T23:43:25.306Z,15.83
2023-05-10T23:48:27.431Z,15.74
2023-05-10T23:53:29.366Z,15.67
2023-05-10T23:58:31.642Z,15.57
